RKTN/TAE METAR and TAF weather

Enter ICAO airport designator
Station Type Date Time Source
RKTN METAR 2019/05/23 19:00 UTC NOAA

RKTN 231900Z 13003KT CAVOK 14/09 Q1011


Station Type Date Time Source
RKTN Decoded METAR 2019/05/23 19:00 UTC NOAA

Taegu Ab, Korea, South (RKTN) 35-54N 128-39E 37M
May 23, 2019 - 03:00 PM EDT / 2019.05.23 1900 UTC
Wind: from the SE (130 degrees) at 3 MPH (3 KT):0
Visibility: greater than 7 mile(s):0
Temperature: 57 F (14 C)
Dew Point: 48 F (9 C)
Relative Humidity: 71%
Pressure (altimeter): 29.85 in. Hg (1011 hPa)
ob: RKTN 231900Z 13003KT CAVOK 14/09 Q1011
cycle: 19

Station Type Date Time Source
RKTN TAF 2019/05/23 18:09 UTC NOAA

TAF RKTN 231700Z 2318/2424 31006KT 9999 FEW040 TN15/2321Z TX34/2407Z
BECMG 2400/2401 31010KT

Example: see airport list